Time;durP1;ratioP1;P1;durP2;ratioP2;P2;SDS_P1;SDS_P2;PMS_P1;PMS_P2;Temp;Humidity;BMP_temperature;BMP_pressure;BME280_temperature;BME280_humidity;BME280_pressure;Samples;Min_cycle;Max_cycle;Signal;HPM_P1;HPM_P2
2022/08/18 00:01:30;;;;;;;;;13.33;13.33;;;;;19.85;70.86;99136.88;6313949;20;3535663;-59
2022/08/18 00:04:00;;;;;;;;;14.33;12.00;;;;;19.90;69.53;99135.34;6281700;20;3531575;-60
2022/08/18 00:06:40;;;;;;;;;14.50;14.50;;;;;20.35;68.65;99144.94;6282379;20;2494090;-60
2022/08/18 00:09:11;;;;;;;;;11.00;11.00;;;;;20.67;66.72;99142.38;6281835;20;3510668;-60
2022/08/18 00:11:43;;;;;;;;;13.67;11.33;;;;;20.17;69.43;99138.81;6311726;20;3532634;-59
2022/08/18 00:14:20;;;;;;;;;13.67;12.67;;;;;19.63;71.79;99139.19;6277489;20;3515233;-59
2022/08/18 00:16:53;;;;;;;;;16.33;14.00;;;;;19.48;72.66;99132.66;6279413;20;3543976;-59
2022/08/18 00:19:24;;;;;;;;;12.67;12.67;;;;;19.89;72.01;99132.81;6282437;20;3520036;-59
2022/08/18 00:22:18;;;;;;;;;16.33;13.33;;;;;19.72;72.48;99130.06;6279448;20;3548232;-60
2022/08/18 00:24:54;;;;;;;;;18.33;14.67;;;;;19.63;72.80;99122.84;6283489;20;2494012;-60
2022/08/18 00:27:30;;;;;;;;;18.00;15.50;;;;;19.56;73.92;99123.66;6310598;20;2485719;-60
2022/08/18 00:30:06;;;;;;;;;15.00;14.00;;;;;19.43;73.93;99116.84;6285602;20;2795058;-60
2022/08/18 00:32:53;;;;;;;;;15.00;15.00;;;;;19.56;74.75;99110.06;6313134;20;2537828;-59
2022/08/18 00:35:35;;;;;;;;;14.00;14.00;;;;;19.68;73.90;99109.59;6313853;20;2484349;-59
2022/08/18 00:38:07;;;;;;;;;17.50;16.00;;;;;19.71;74.29;99109.28;6278313;20;2491984;-60
2022/08/18 00:40:55;;;;;;;;;18.00;17.50;;;;;20.43;72.86;99118.69;6280187;20;2833592;-60
2022/08/18 00:43:35;;;;;;;;;16.00;15.50;;;;;20.51;71.01;99122.28;6279028;20;2813876;-60
2022/08/18 00:46:16;;;;;;;;;16.00;16.00;;;;;20.44;71.47;99115.78;6278300;20;3556528;-59
2022/08/18 00:48:47;;;;;;;;;20.00;16.00;;;;;19.97;72.77;99107.44;6281516;20;2826417;-59
2022/08/18 00:51:42;;;;;;;;;15.00;15.00;;;;;19.90;74.26;99102.66;6282929;20;2811869;-59
2022/08/18 00:54:27;;;;;;;;;14.33;14.33;;;;;19.97;73.89;99110.16;6278506;20;3536688;-59
2022/08/18 00:57:05;;;;;;;;;17.33;15.33;;;;;20.32;72.58;99118.00;6277762;20;3550641;-59
2022/08/18 00:59:56;;;;;;;;;18.00;17.67;;;;;20.47;71.90;99111.88;6312103;20;3557603;-60
2022/08/18 01:02:36;;;;;;;;;21.50;19.00;;;;;20.72;72.22;99118.16;6277302;20;2829459;-60
2022/08/18 01:05:39;;;;;;;;;23.00;21.33;;;;;20.85;72.34;99123.09;6277798;20;2846162;-59
2022/08/18 01:08:13;;;;;;;;;21.00;18.00;;;;;20.77;72.85;99127.56;6313333;20;3573273;-59
2022/08/18 01:10:44;;;;;;;;;18.67;18.00;;;;;20.78;72.95;99129.25;6285247;20;3571081;-59
2022/08/18 01:13:13;;;;;;;;;18.00;18.00;;;;;20.61;74.16;99122.94;6286048;20;2831555;-59
2022/08/18 01:15:42;;;;;;;;;15.00;15.00;;;;;20.59;75.11;99129.63;6285790;20;2814045;-60
2022/08/18 01:24:06;;;;;;;;;23.00;21.00;;;;;19.87;79.99;99130.25;6280612;20;2836737;-59
2022/08/18 01:26:48;;;;;;;;;21.33;20.00;;;;;20.34;78.11;99126.88;6285574;20;3565888;-66
2022/08/18 01:29:18;;;;;;;;;25.00;20.67;;;;;20.17;79.21;99130.63;6319828;20;3580526;-66
2022/08/18 01:31:54;;;;;;;;;22.00;20.00;;;;;20.15;78.70;99132.66;6286073;20;2831521;-65
2022/08/18 01:34:27;;;;;;;;;21.00;17.67;;;;;20.36;77.66;99135.75;6288916;20;3578594;-66
2022/08/18 01:36:56;;;;;;;;;28.00;25.00;;;;;19.78;80.72;99131.25;6288297;20;3462741;-66
2022/08/18 01:39:25;;;;;;;;;23.00;22.00;;;;;19.78;80.93;99131.25;6316368;20;3565883;-65
2022/08/18 01:42:16;;;;;;;;;23.00;20.00;;;;;19.67;82.31;99118.81;6283110;20;2829511;-66
2022/08/18 01:44:50;;;;;;;;;24.33;22.33;;;;;19.52;82.97;99126.72;6285938;20;3586716;-66
2022/08/18 01:47:19;;;;;;;;;20.67;20.67;;;;;19.67;81.28;99137.03;6284867;20;3583731;-65
2022/08/18 01:49:48;;;;;;;;;25.00;22.00;;;;;19.86;79.52;99128.53;6287795;20;3574651;-66
2022/08/18 01:52:20;;;;;;;;;23.33;21.00;;;;;19.56;79.55;99137.28;6284826;20;3581492;-65
2022/08/18 01:54:52;;;;;;;;;21.00;19.00;;;;;19.79;79.23;99132.09;6283209;20;2844136;-65
2022/08/18 01:57:23;;;;;;;;;19.67;19.00;;;;;19.93;78.57;99129.59;6314789;20;3575298;-65
2022/08/18 01:59:53;;;;;;;;;23.00;22.00;;;;;19.17;80.92;99148.69;6285828;20;2837797;-65
2022/08/18 02:02:27;;;;;;;;;20.67;20.67;;;;;19.48;80.91;99147.16;6320836;20;3576280;-65
2022/08/18 02:05:11;;;;;;;;;23.00;21.00;;;;;19.79;79.28;99145.72;6280461;20;2839865;-65
2022/08/18 02:07:41;;;;;;;;;20.33;20.33;;;;;19.67;80.41;99151.50;6283323;20;2843058;-65
2022/08/18 02:10:12;;;;;;;;;23.00;20.67;;;;;19.68;81.45;99152.34;6319695;20;3569054;-66
2022/08/18 02:12:44;;;;;;;;;22.33;22.33;;;;;19.77;82.16;99145.88;6284881;20;3580473;-65
2022/08/18 02:15:13;;;;;;;;;23.67;21.00;;;;;19.20;84.37;99146.53;6286374;20;3581495;-66
2022/08/18 02:17:44;;;;;;;;;23.67;23.67;;;;;19.07;85.05;99149.69;6285757;20;3577382;-66
2022/08/18 02:20:17;;;;;;;;;27.00;23.50;;;;;18.81;85.56;99141.53;6284771;20;2849294;-65
2022/08/18 02:22:48;;;;;;;;;20.00;18.00;;;;;19.04;82.40;99139.13;6285806;20;2720149;-65
2022/08/18 02:25:18;;;;;;;;;19.67;19.67;;;;;18.94;82.11;99143.84;6314749;20;2844561;-65
2022/08/18 02:27:47;;;;;;;;;21.00;19.00;;;;;19.17;81.97;99138.69;6315602;20;3574620;-65
2022/08/18 02:30:18;;;;;;;;;26.00;21.33;;;;;19.61;81.12;99140.38;6284916;20;3582565;-65
2022/08/18 02:32:47;;;;;;;;;23.00;20.00;;;;;19.66;79.70;99148.88;6285273;20;2831521;-65
2022/08/18 02:35:17;;;;;;;;;22.00;21.67;;;;;19.65;81.24;99152.66;6281013;20;3585770;-65
2022/08/18 02:37:47;;;;;;;;;26.67;24.33;;;;;19.25;83.11;99151.47;6314147;20;2843124;-66
2022/08/18 02:40:17;;;;;;;;;28.33;26.00;;;;;19.33;83.80;99153.38;6318269;20;3592962;-65
2022/08/18 02:42:47;;;;;;;;;29.00;26.33;;;;;19.25;84.86;99155.06;6288620;20;3608756;-65
2022/08/18 02:45:15;;;;;;;;;21.67;20.33;;;;;19.62;83.11;99150.25;6285574;20;3574220;-65
2022/08/18 02:47:44;;;;;;;;;26.33;24.33;;;;;19.41;85.36;99151.53;6285436;20;3601384;-65
2022/08/18 02:50:15;;;;;;;;;27.67;26.00;;;;;18.96;88.23;99149.13;6281875;20;3594088;-65
2022/08/18 02:52:45;;;;;;;;;29.50;27.00;;;;;19.07;88.66;99144.25;6286686;20;3606497;-65
2022/08/18 02:55:14;;;;;;;;;35.33;30.00;;;;;18.93;90.82;99139.41;6315748;20;3583650;-66
2022/08/18 02:57:50;;;;;;;;;25.00;22.67;;;;;19.62;87.98;99147.53;6283100;20;3591962;-65
2022/08/18 03:00:19;;;;;;;;;30.33;29.33;;;;;19.51;87.66;99152.25;6283731;20;3602477;-66
2022/08/18 03:02:52;;;;;;;;;29.00;27.67;;;;;19.33;88.70;99145.22;6286622;20;3608547;-65
2022/08/18 03:05:20;;;;;;;;;31.67;30.00;;;;;18.85;90.98;99150.22;6285565;20;3588789;-65
2022/08/18 03:07:49;;;;;;;;;30.33;28.67;;;;;19.08;91.72;99151.38;6285457;20;3580454;-66
2022/08/18 03:10:18;;;;;;;;;30.33;27.67;;;;;19.10;92.17;99148.50;6288821;20;3586705;-65
2022/08/18 03:13:02;;;;;;;;;27.00;27.00;;;;;18.85;92.41;99150.22;6285383;20;3596062;-66
2022/08/18 03:15:31;;;;;;;;;28.67;27.67;;;;;19.10;91.57;99161.28;6281821;20;3604420;-65
2022/08/18 03:18:00;;;;;;;;;27.00;26.00;;;;;18.75;92.67;99160.38;6283239;20;2663788;-66
2022/08/18 03:20:29;;;;;;;;;29.67;29.00;;;;;19.07;92.28;99155.13;6284414;20;3591931;-66
2022/08/18 03:23:02;;;;;;;;;29.00;26.00;;;;;19.29;90.96;99171.91;6287421;20;3610647;-65
2022/08/18 03:25:48;;;;;;;;;35.33;32.00;;;;;19.24;92.55;99160.66;6284303;20;3606729;-65
2022/08/18 03:28:17;;;;;;;;;32.33;30.00;;;;;18.64;94.91;99159.59;6287654;20;3604421;-66
2022/08/18 03:30:46;;;;;;;;;27.33;24.00;;;;;18.61;94.58;99159.03;6286263;20;3598178;-66
2022/08/18 03:33:14;;;;;;;;;27.00;25.33;;;;;18.78;93.07;99162.78;6284900;20;3598219;-65
2022/08/18 03:35:43;;;;;;;;;29.67;29.67;;;;;19.20;90.22;99171.00;6283981;20;3588773;-65
2022/08/18 03:38:12;;;;;;;;;30.67;28.67;;;;;18.62;92.55;99160.78;6288542;20;3581465;-66
2022/08/18 03:40:42;;;;;;;;;31.00;30.00;;;;;18.96;92.78;99166.28;6285851;20;3588785;-66
2022/08/18 03:43:10;;;;;;;;;31.33;29.33;;;;;19.12;91.71;99176.41;6287330;20;3597120;-66
2022/08/18 03:46:06;;;;;;;;;32.00;30.00;;;;;18.81;93.48;99176.91;6284679;20;3530977;-66
2022/08/18 03:48:38;;;;;;;;;34.00;31.00;;;;;18.92;93.31;99181.22;6317746;20;3585714;-65
2022/08/18 03:51:14;;;;;;;;;31.67;30.33;;;;;19.15;92.42;99178.81;6285203;20;3585743;-66
2022/08/18 03:53:43;;;;;;;;;35.33;32.67;;;;;18.96;92.81;99179.91;6285291;20;3610741;-66
2022/08/18 03:56:26;;;;;;;;;32.33;29.33;;;;;19.56;91.78;99187.16;6279237;20;3589904;-66
2022/08/18 03:59:00;;;;;;;;;31.67;30.00;;;;;19.46;91.34;99186.47;6280813;20;3577429;-66
2022/08/18 04:01:40;;;;;;;;;34.33;30.00;;;;;19.84;90.18;99198.69;6285841;20;3590842;-66
2022/08/18 04:04:22;;;;;;;;;34.00;32.00;;;;;19.25;93.23;99195.03;6290268;20;3597137;-66
2022/08/18 04:07:04;;;;;;;;;34.00;31.67;;;;;19.65;90.76;99201.66;6287180;20;3608775;-66
2022/08/18 04:09:35;;;;;;;;;35.00;30.33;;;;;19.81;90.71;99204.47;6286387;20;3583588;-66
2022/08/18 04:12:13;;;;;;;;;35.25;32.88;;;;;19.30;93.66;99209.00;6306893;20;3602326;-67
2022/08/18 04:14:48;;;;;;;;;33.00;32.00;;;;;19.23;95.86;99202.50;6279731;20;3594443;-67
2022/08/18 04:17:23;;;;;;;;;37.00;32.67;;;;;19.27;95.32;99201.16;6311745;20;3601305;-66
2022/08/18 04:19:55;;;;;;;;;38.33;33.67;;;;;19.30;92.97;99198.13;6288087;20;3604388;-66
2022/08/18 04:22:25;;;;;;;;;39.00;31.33;;;;;18.95;90.08;99197.22;6277908;20;3602467;-66
2022/08/18 04:24:54;;;;;;;;;32.00;30.00;;;;;18.84;89.03;99200.22;6287470;20;3584757;-66
2022/08/18 04:27:27;;;;;;;;;33.00;30.00;;;;;18.88;89.21;99198.91;6276854;20;3583727;-66
2022/08/18 04:29:56;;;;;;;;;31.00;27.00;;;;;19.31;88.41;99194.38;6315011;20;3601283;-65
2022/08/18 04:32:26;;;;;;;;;28.00;28.00;;;;;19.14;90.52;99192.56;6279898;20;3590887;-65
2022/08/18 04:34:57;;;;;;;;;31.67;30.33;;;;;18.73;90.89;99184.13;6282156;20;3604504;-66
2022/08/18 04:37:31;;;;;;;;;32.33;30.00;;;;;18.62;92.59;99172.50;6278492;20;3596050;-65
2022/08/18 04:40:09;;;;;;;;;32.00;30.00;;;;;18.96;91.81;99177.19;6284273;20;3598201;-66
2022/08/18 04:42:40;;;;;;;;;27.67;27.00;;;;;19.89;87.35;99196.31;6283741;20;3600289;-66
2022/08/18 04:45:11;;;;;;;;;29.00;28.00;;;;;19.95;87.37;99208.44;6284347;20;3584655;-65
2022/08/18 04:47:40;;;;;;;;;30.67;28.67;;;;;20.14;88.33;99204.53;6287339;20;3593989;-65
2022/08/18 04:50:10;;;;;;;;;34.67;29.00;;;;;20.47;87.19;99207.31;6288819;20;3596063;-65
2022/08/18 04:55:28;;;;;;;;;32.67;30.67;;;;;20.79;86.69;99218.25;6287851;20;3590518;-66
2022/08/18 04:57:58;;;;;;;;;30.00;28.67;;;;;21.69;83.19;99226.25;6285267;20;3586701;-66
2022/08/18 05:00:27;;;;;;;;;33.67;31.00;;;;;22.17;80.03;99228.94;6288265;20;3600311;-66
2022/08/18 05:02:56;;;;;;;;;30.33;30.00;;;;;22.01;80.18;99224.41;6287922;20;3575252;-66
2022/08/18 05:05:26;;;;;;;;;30.00;30.00;;;;;21.89;82.96;99220.38;6282793;20;3578558;-66
2022/08/18 05:07:56;;;;;;;;;30.00;30.00;;;;;21.84;83.55;99220.06;6285894;20;3598359;-66
2022/08/18 05:10:25;;;;;;;;;35.33;30.33;;;;;21.95;83.65;99225.09;6287610;20;3586802;-67
2022/08/18 05:12:55;;;;;;;;;36.50;32.50;;;;;22.21;82.67;99218.50;6279181;20;3612877;-67
2022/08/18 05:15:24;;;;;;;;;35.33;30.67;;;;;23.51;77.59;99226.59;6316129;20;3600272;-67
2022/08/18 05:17:52;;;;;;;;;34.67;30.00;;;;;23.31;78.40;99227.16;6283822;20;3591931;-66
2022/08/18 05:20:22;;;;;;;;;34.00;32.00;;;;;26.10;68.53;99230.94;6290672;20;3596837;-69
2022/08/18 05:22:51;;;;;;;;;34.00;32.00;;;;;26.00;67.66;99229.41;6287026;20;3597210;-69
2022/08/18 05:25:20;;;;;;;;;32.50;30.50;;;;;25.04;72.04;99225.59;6306008;20;3576331;-68
2022/08/18 05:27:48;;;;;;;;;33.67;29.33;;;;;25.25;70.11;99230.22;6314835;20;3593988;-68
2022/08/18 05:30:17;;;;;;;;;32.33;30.33;;;;;23.41;78.78;99221.41;6277429;20;3577344;-67
2022/08/18 05:32:46;;;;;;;;;29.67;27.00;;;;;23.87;77.34;99224.78;6286438;20;3591998;-67
2022/08/18 05:35:46;;;;;;;;;31.67;29.33;;;;;25.07;74.09;99223.31;6287312;20;3576499;-66
2022/08/18 05:38:52;;;;;;;;;27.00;27.00;;;;;23.94;77.89;99210.34;6282163;20;3568973;-68
2022/08/18 05:41:33;;;;;;;;;29.33;27.67;;;;;23.97;78.93;99209.94;6285455;20;3582618;-59
2022/08/18 05:44:04;;;;;;;;;29.33;27.00;;;;;26.00;72.55;99221.16;6284580;20;3568958;-60
2022/08/18 05:47:05;;;;;;;;;32.00;28.33;;;;;25.91;69.87;99230.66;6285650;20;3596060;-60
2022/08/18 05:49:35;;;;;;;;;28.00;25.67;;;;;24.94;74.56;99226.78;6284853;20;3574179;-60
2022/08/18 05:52:30;;;;;;;;;30.67;27.67;;;;;25.18;73.69;99230.19;6283828;20;3587809;-59
2022/08/18 05:58:20;;;;;;;;;33.33;29.67;;;;;25.90;71.43;99234.44;6312455;20;3579574;-60
2022/08/18 06:01:01;;;;;;;;;31.00;29.00;;;;;25.84;72.31;99241.59;6315732;20;3587801;-59
2022/08/18 06:03:47;;;;;;;;;18.00;18.00;;;;;25.19;72.97;99232.72;6317134;20;3575632;-60
2022/08/18 06:06:29;;;;;;;;;26.00;26.00;;;;;25.23;74.31;99235.94;6285800;20;3594112;-59
2022/08/18 06:09:21;;;;;;;;;28.33;28.33;;;;;25.19;73.62;99232.72;6285500;20;3582638;-59
2022/08/18 06:11:52;;;;;;;;;32.33;28.67;;;;;26.95;67.81;99232.16;6288463;20;3592913;-59
2022/08/18 06:14:21;;;;;;;;;22.00;20.33;;;;;25.60;71.73;99229.19;6285833;20;3577615;-59
2022/08/18 06:17:25;;;;;;;;;29.00;27.33;;;;;25.41;72.26;99232.69;6313653;20;3599189;-59
2022/08/18 06:20:41;;;;;;;;;29.00;27.67;;;;;25.32;71.74;99226.47;6322380;20;3582511;-59
2022/08/18 06:23:48;;;;;;;;;25.67;25.67;;;;;25.96;70.58;99233.63;6287367;20;3600219;-59
2022/08/18 06:26:56;;;;;;;;;31.25;27.75;;;;;26.53;67.01;99233.41;6289211;20;3607694;-59
2022/08/18 06:30:06;;;;;;;;;26.67;25.33;;;;;25.73;70.06;99233.06;6313480;20;3584639;-60
2022/08/18 06:32:40;;;;;;;;;26.33;26.33;;;;;25.81;70.13;99232.91;6313702;20;3581525;-58
2022/08/18 06:35:28;;;;;;;;;30.33;28.00;;;;;26.69;67.84;99236.59;6305928;20;3585672;-58
2022/08/18 06:38:46;;;;;;;;;26.00;26.00;;;;;26.33;67.42;99238.81;6336420;20;3584611;-64
2022/08/18 06:41:19;;;;;;;;;28.33;28.33;;;;;27.08;65.39;99243.19;6285121;20;3597107;-65
2022/08/18 06:44:19;;;;;;;;;26.67;25.33;;;;;28.27;61.87;99246.75;6284253;20;3583584;-63
2022/08/18 06:47:10;;;;;;;;;26.75;25.00;;;;;34.33;45.19;99269.81;6285092;20;3596180;-63
2022/08/18 06:50:20;;;;;;;;;18.67;17.00;;;;;35.11;42.45;99271.25;6313421;20;2823305;-65
2022/08/18 06:53:01;;;;;;;;;18.14;17.29;;;;;37.25;37.63;99286.56;6334082;20;3572089;-64
2022/08/18 06:55:48;;;;;;;;;26.75;23.50;;;;;35.02;42.00;99266.38;6285857;20;3583579;-62
2022/08/18 06:58:29;;;;;;;;;18.86;18.86;;;;;37.48;37.21;99290.75;6330888;20;3576287;-62
2022/08/18 07:01:05;;;;;;;;;23.00;23.00;;;;;37.73;36.90;99281.50;6284696;20;1890276;-63
2022/08/18 07:03:34;;;;;;;;;16.00;16.00;;;;;34.36;41.95;99266.50;6313983;20;3555511;-62
2022/08/18 07:06:20;;;;;;;;;24.00;23.00;;;;;37.46;36.44;99279.00;6286387;20;3604545;-63
2022/08/18 07:08:55;;;;;;;;;23.29;22.14;;;;;39.37;32.72;99284.38;6328465;20;3596102;-63
2022/08/18 07:11:33;;;;;;;;;19.00;19.00;;;;;37.10;35.70;99284.59;6279665;20;3572223;-63
2022/08/18 07:14:22;;;;;;;;;21.43;19.71;;;;;36.39;36.77;99277.69;6302184;20;3575216;-63
2022/08/18 07:17:12;;;;;;;;;22.75;21.75;;;;;39.10;32.48;99278.38;6299148;20;3592075;-64
2022/08/18 07:19:43;;;;;;;;;23.86;20.14;;;;;39.38;32.65;99283.25;6335132;20;3571082;-63
2022/08/18 07:22:16;;;;;;;;;21.29;19.71;;;;;39.20;32.63;99281.13;6299046;20;3586747;-63
2022/08/18 07:24:54;;;;;;;;;24.00;22.43;;;;;34.42;40.58;99257.94;6303316;20;3574243;-63
2022/08/18 07:27:47;;;;;;;;;23.57;21.86;;;;;33.54;44.07;99248.66;6302287;20;3602341;-67
2022/08/18 07:30:19;;;;;;;;;19.71;19.71;;;;;37.70;36.18;99270.84;6301532;20;3574272;-70
2022/08/18 07:33:18;;;;;;;;;21.71;21.43;;;;;37.14;35.68;99268.91;6301063;20;3586244;-67
2022/08/18 07:35:59;;;;;;;;;22.00;20.00;;;;;35.08;40.79;99266.19;6285040;20;3574251;-64
2022/08/18 07:38:41;;;;;;;;;19.86;18.71;;;;;30.26;50.99;99246.97;6298531;20;3569109;-65
2022/08/18 07:41:26;;;;;;;;;24.50;24.00;;;;;29.60;53.04;99233.88;6279030;20;3594055;-65
2022/08/18 07:44:28;;;;;;;;;27.00;24.00;;;;;30.44;52.26;99239.69;6329806;20;3583580;-65
2022/08/18 07:47:05;;;;;;;;;25.33;24.67;;;;;30.55;51.59;99247.22;6277453;20;3590860;-66
2022/08/18 07:49:37;;;;;;;;;26.86;25.86;;;;;30.36;52.70;99249.16;6330795;20;3592992;-68
2022/08/18 07:52:57;;;;;;;;;24.14;23.57;;;;;30.75;51.37;99247.75;6300996;20;3585704;-65
2022/08/18 07:55:34;;;;;;;;;23.33;22.00;;;;;30.24;51.68;99239.97;6279443;20;3574231;-65
2022/08/18 07:58:44;;;;;;;;;25.57;23.14;;;;;31.23;49.97;99249.56;6327181;20;3583614;-64
2022/08/18 08:01:41;;;;;;;;;24.67;23.00;;;;;31.19;49.80;99253.06;6279739;20;3585642;-64
2022/08/18 08:04:40;;;;;;;;;26.00;25.29;;;;;31.44;49.24;99244.53;6330031;20;3586674;-64
2022/08/18 08:07:24;;;;;;;;;25.14;24.00;;;;;31.65;48.11;99254.16;6296118;20;3589909;-65
2022/08/18 08:10:55;;;;;;;;;23.14;21.71;;;;;31.84;48.23;99254.88;6299374;20;3592979;-65
2022/08/18 08:13:42;;;;;;;;;19.00;19.00;;;;;30.44;50.76;99245.22;6287893;20;3572126;-66
2022/08/18 08:17:10;;;;;;;;;26.00;24.14;;;;;31.46;48.74;99253.44;6298516;20;3589852;-69
2022/08/18 08:20:31;;;;;;;;;21.00;20.00;;;;;31.24;49.38;99250.41;6303467;20;3572149;-66
2022/08/18 08:23:33;;;;;;;;;21.00;21.00;;;;;31.63;48.23;99259.97;6281583;20;3581580;-67
2022/08/18 08:26:22;;;;;;;;;24.00;21.00;;;;;31.63;47.70;99265.53;6282386;20;3574203;-66
2022/08/18 08:29:54;;;;;;;;;23.29;22.29;;;;;31.41;48.19;99256.97;6302818;20;3596532;-67
2022/08/18 08:32:41;;;;;;;;;26.86;25.29;;;;;31.47;48.16;99261.53;6299487;20;3585894;-67
2022/08/18 08:35:38;;;;;;;;;24.00;22.29;;;;;31.69;46.30;99269.25;6299658;20;3584704;-66
2022/08/18 08:38:47;;;;;;;;;28.25;22.38;;;;;31.70;46.68;99270.94;6301893;20;3597161;-66
2022/08/18 08:41:38;;;;;;;;;25.50;23.00;;;;;31.71;47.10;99267.91;6335869;20;3595047;-68
2022/08/18 08:44:31;;;;;;;;;26.43;24.86;;;;;31.52;48.03;99274.69;6332845;20;3598197;-66
2022/08/18 08:47:31;;;;;;;;;23.43;22.43;;;;;31.58;47.25;99272.88;6301261;20;3587741;-65
2022/08/18 08:50:15;;;;;;;;;21.14;21.14;;;;;31.81;46.80;99272.00;6303913;20;3582671;-65
2022/08/18 08:52:57;;;;;;;;;24.71;22.14;;;;;31.71;47.15;99279.03;6304740;20;3587788;-59
2022/08/18 08:55:52;;;;;;;;;23.14;22.71;;;;;32.15;45.12;99275.88;6304507;20;3587736;-65
2022/08/18 08:58:47;;;;;;;;;25.75;23.25;;;;;32.12;45.18;99268.88;6285227;20;3597138;-63
2022/08/18 09:01:54;;;;;;;;;21.29;19.57;;;;;32.73;44.38;99273.94;6332255;20;3564857;-63
2022/08/18 09:05:28;;;;;;;;;20.71;20.71;;;;;33.02;43.49;99260.91;6302202;20;3581537;-63
2022/08/18 09:08:42;;;;;;;;;19.67;18.00;;;;;31.66;46.69;99265.03;6281107;20;3567006;-65
2022/08/18 09:11:38;;;;;;;;;22.00;21.00;;;;;32.64;43.53;99269.91;6298463;20;3571327;-64
2022/08/18 09:14:43;;;;;;;;;18.00;18.00;;;;;32.53;44.00;99269.72;6279009;20;3550301;-63
2022/08/18 09:17:52;;;;;;;;;22.57;19.43;;;;;32.63;43.55;99268.22;6302983;20;3579422;-64
2022/08/18 09:20:50;;;;;;;;;25.00;23.75;;;;;31.95;46.16;99256.81;6285454;20;3594074;-63
2022/08/18 09:23:37;;;;;;;;;22.00;18.00;;;;;32.62;44.38;99266.53;6316440;20;3440137;-63
2022/08/18 09:26:39;;;;;;;;;21.33;21.33;;;;;32.55;44.13;99255.56;6314296;20;3580413;-64
2022/08/18 09:29:24;;;;;;;;;18.00;16.67;;;;;32.89;44.17;99250.91;6289604;20;3570086;-63
2022/08/18 09:32:17;;;;;;;;;13.33;12.00;;;;;32.32;45.42;99253.69;6285802;20;3521155;-63
2022/08/18 09:35:06;;;;;;;;;21.86;18.43;;;;;33.13;43.76;99245.22;6333810;20;3577366;-62
2022/08/18 09:41:46;;;;;;;;;18.33;16.33;;;;;33.30;42.85;99240.47;6284191;20;3564781;-64
2022/08/18 09:44:48;;;;;;;;;20.00;20.00;;;;;33.16;42.16;99236.38;6284921;20;3577364;-63
2022/08/18 09:47:25;;;;;;;;;17.67;17.67;;;;;33.58;42.12;99236.78;6288154;20;1883645;-63
2022/08/18 09:50:03;;;;;;;;;25.14;20.71;;;;;33.04;43.29;99230.88;6335992;20;3566945;-63
2022/08/18 09:52:34;;;;;;;;;18.67;17.33;;;;;33.45;42.27;99235.16;6289483;20;3574192;-63
2022/08/18 09:55:33;;;;;;;;;23.00;21.00;;;;;34.02;39.38;99233.16;6287946;20;3569025;-63
2022/08/18 09:58:25;;;;;;;;;15.67;15.67;;;;;33.67;41.33;99234.38;6288682;20;3560640;-63
2022/08/18 10:01:35;;;;;;;;;16.86;16.86;;;;;33.42;40.99;99230.09;6300043;20;3557588;-62
2022/08/18 10:04:52;;;;;;;;;21.00;20.00;;;;;33.90;41.01;99221.31;6290596;20;3580439;-64
2022/08/18 10:07:56;;;;;;;;;15.33;14.33;;;;;33.84;40.36;99223.22;6284433;20;3536714;-63
2022/08/18 10:10:56;;;;;;;;;22.00;19.43;;;;;33.78;39.55;99210.28;6303471;20;3575308;-63
2022/08/18 10:14:56;;;;;;;;;20.67;19.33;;;;;34.20;39.54;99210.56;6285030;20;3571041;-64
2022/08/18 10:18:22;;;;;;;;;19.00;18.00;;;;;34.17;37.47;99199.94;6282573;20;3581510;-64
2022/08/18 10:21:09;;;;;;;;;19.33;17.67;;;;;33.64;39.11;99196.75;6284778;20;3573696;-63
2022/08/18 10:24:17;;;;;;;;;21.33;19.00;;;;;33.69;38.60;99181.22;6282179;20;2846243;-63
2022/08/18 10:27:45;;;;;;;;;18.33;15.00;;;;;34.15;37.98;99184.59;6312782;20;3558575;-63
2022/08/18 10:30:35;;;;;;;;;18.33;16.67;;;;;34.40;36.98;99184.03;6316858;20;3557612;-63
2022/08/18 10:33:59;;;;;;;;;16.67;16.67;;;;;34.99;35.74;99192.41;6289553;20;3557549;-63
2022/08/18 10:36:47;;;;;;;;;13.00;13.00;;;;;34.39;34.99;99191.56;6285820;20;2800304;-55
2022/08/18 10:39:49;;;;;;;;;17.33;17.33;;;;;34.62;35.48;99179.25;6284538;20;3572203;-58
2022/08/18 10:42:48;;;;;;;;;10.50;10.50;;;;;34.32;36.79;99179.78;6312662;20;2794068;-58
2022/08/18 10:45:30;;;;;;;;;17.67;16.67;;;;;34.69;36.10;99179.88;6281365;20;3570171;-54
2022/08/18 10:48:31;;;;;;;;;14.71;14.71;;;;;35.23;34.08;99186.47;6331758;20;3538774;-59
2022/08/18 10:52:11;;;;;;;;;15.43;14.00;;;;;34.46;35.80;99185.78;6336566;20;3539806;-57
2022/08/18 10:55:12;;;;;;;;;16.33;16.00;;;;;34.96;34.47;99192.94;6283938;20;3569088;-60
2022/08/18 10:58:27;;;;;;;;;13.67;12.67;;;;;34.64;34.32;99173.44;6284871;20;3522211;-60
2022/08/18 11:01:39;;;;;;;;;16.67;16.67;;;;;34.84;34.18;99195.09;6315130;20;3570100;-58
2022/08/18 11:04:40;;;;;;;;;16.00;13.00;;;;;35.07;33.95;99186.34;6314523;20;2804835;-59
2022/08/18 11:07:25;;;;;;;;;17.33;17.00;;;;;34.91;34.47;99181.75;6286308;20;3569438;-58
2022/08/18 11:09:59;;;;;;;;;15.00;13.33;;;;;33.21;35.92;99178.03;6287158;20;3527317;-59
2022/08/18 11:13:13;;;;;;;;;14.50;13.00;;;;;34.49;33.77;99179.66;6316689;20;3414833;-59
2022/08/18 11:16:11;;;;;;;;;14.00;14.00;;;;;34.24;33.96;99169.09;6313469;20;3529399;-56
2022/08/18 11:18:47;;;;;;;;;14.00;14.00;;;;;34.13;34.30;99168.16;6321388;20;3529418;-57
2022/08/18 11:21:37;;;;;;;;;10.00;10.00;;;;;35.07;32.46;99179.91;6313211;20;2784748;-60
2022/08/18 11:24:23;;;;;;;;;14.00;14.00;;;;;34.73;32.35;99164.31;6278506;20;2805556;-56
2022/08/18 11:27:17;;;;;;;;;13.67;13.67;;;;;34.91;32.58;99157.47;6283420;20;3535741;-54
2022/08/18 11:29:51;;;;;;;;;16.00;13.50;;;;;34.84;32.77;99158.84;6283145;20;2812829;-55
2022/08/18 11:32:37;;;;;;;;;14.00;14.00;;;;;34.77;32.81;99152.63;6281964;20;2483678;-54
2022/08/18 11:35:34;;;;;;;;;14.00;10.50;;;;;35.36;31.90;99160.88;6311004;20;2788925;-52
2022/08/18 11:38:12;;;;;;;;;13.33;13.33;;;;;34.90;32.71;99152.16;6280413;20;3525227;-58
2022/08/18 11:41:18;;;;;;;;;10.67;10.33;;;;;34.99;32.40;99149.72;6309620;20;3507650;-53
2022/08/18 11:43:47;;;;;;;;;16.33;14.67;;;;;35.24;33.30;99154.69;6316613;20;3550409;-50
2022/08/18 11:46:39;;;;;;;;;17.00;14.00;;;;;35.21;32.92;99144.06;6278784;20;3415890;-50
2022/08/18 11:49:57;;;;;;;;;15.00;15.00;;;;;35.27;32.01;99137.38;6314702;20;3520252;-51
2022/08/18 11:52:29;;;;;;;;;13.00;11.67;;;;;35.29;31.87;99137.97;6309663;20;2489879;-55
2022/08/18 11:55:33;;;;;;;;;10.33;10.00;;;;;35.14;32.03;99125.56;6313048;20;3510640;-56
2022/08/18 11:58:04;;;;;;;;;14.00;12.67;;;;;35.43;31.37;99115.97;6311624;20;3533633;-55
2022/08/18 12:00:44;;;;;;;;;9.00;7.67;;;;;35.37;31.21;99131.88;6317624;20;2758673;-53
2022/08/18 12:03:44;;;;;;;;;16.00;13.50;;;;;35.79;31.30;99131.81;6316338;20;2791914;-53
2022/08/18 12:06:24;;;;;;;;;10.67;10.67;;;;;35.71;31.31;99121.16;6282668;20;3510772;-55
2022/08/18 12:09:33;;;;;;;;;13.00;13.00;;;;;35.58;31.46;99111.34;6314396;20;2808649;-54
2022/08/18 12:12:30;;;;;;;;;12.33;12.33;;;;;35.56;31.00;99109.88;6312026;20;3530602;-54
2022/08/18 12:15:27;;;;;;;;;13.33;12.00;;;;;34.88;31.79;99104.16;6309550;20;2483700;-54
2022/08/18 12:18:10;;;;;;;;;11.67;8.67;;;;;35.26;31.20;99107.78;6315872;20;2769160;-55
2022/08/18 12:21:00;;;;;;;;;11.00;9.67;;;;;35.92;29.34;99105.31;6316308;20;3503385;-56
2022/08/18 12:23:33;;;;;;;;;11.00;11.00;;;;;36.05;28.08;99101.97;6308835;20;3510719;-53
2022/08/18 12:26:16;;;;;;;;;9.67;9.67;;;;;36.01;28.56;99098.06;6286946;20;2765919;-51
2022/08/18 12:29:05;;;;;;;;;9.00;9.00;;;;;35.74;27.38;99094.63;6310359;20;3465870;-54
2022/08/18 12:31:39;;;;;;;;;8.67;8.67;;;;;35.57;28.60;99084.53;6312562;20;3470007;-55
2022/08/18 12:34:18;;;;;;;;;10.00;10.00;;;;;36.27;28.03;99086.94;6307879;20;3511775;-55